sensor_id;sensor_type;location;lat;lon;timestamp;P1;durP1;ratioP1;P2;durP2;ratioP2
1721;SDS011;858;53.190;8.596;2024-02-14T00:02:20;6.63;;;5.20;;
1721;SDS011;858;53.190;8.596;2024-02-14T00:04:47;6.90;;;5.00;;
1721;SDS011;858;53.190;8.596;2024-02-14T00:07:15;8.93;;;5.83;;
1721;SDS011;858;53.190;8.596;2024-02-14T00:09:41;9.47;;;6.20;;
1721;SDS011;858;53.190;8.596;2024-02-14T00:12:07;6.03;;;5.43;;
1721;SDS011;858;53.190;8.596;2024-02-14T00:14:36;9.43;;;5.93;;
1721;SDS011;858;53.190;8.596;2024-02-14T00:17:04;6.47;;;4.70;;
1721;SDS011;858;53.190;8.596;2024-02-14T00:19:32;7.20;;;6.50;;
1721;SDS011;858;53.190;8.596;2024-02-14T00:21:58;7.90;;;5.20;;
1721;SDS011;858;53.190;8.596;2024-02-14T00:24:26;8.67;;;5.23;;
1721;SDS011;858;53.190;8.596;2024-02-14T00:26:54;7.10;;;6.40;;
1721;SDS011;858;53.190;8.596;2024-02-14T00:29:21;7.73;;;6.93;;
1721;SDS011;858;53.190;8.596;2024-02-14T00:31:48;7.40;;;6.17;;
1721;SDS011;858;53.190;8.596;2024-02-14T00:34:15;13.23;;;6.07;;
1721;SDS011;858;53.190;8.596;2024-02-14T00:36:41;8.57;;;6.63;;
1721;SDS011;858;53.190;8.596;2024-02-14T00:39:08;15.33;;;7.03;;
1721;SDS011;858;53.190;8.596;2024-02-14T00:41:37;14.03;;;7.40;;
1721;SDS011;858;53.190;8.596;2024-02-14T00:44:03;11.10;;;6.70;;
1721;SDS011;858;53.190;8.596;2024-02-14T00:46:30;7.33;;;6.53;;
1721;SDS011;858;53.190;8.596;2024-02-14T00:48:56;10.20;;;7.30;;
1721;SDS011;858;53.190;8.596;2024-02-14T00:51:23;13.97;;;8.17;;
1721;SDS011;858;53.190;8.596;2024-02-14T00:53:49;9.87;;;7.40;;
1721;SDS011;858;53.190;8.596;2024-02-14T00:56:16;7.40;;;6.67;;
1721;SDS011;858;53.190;8.596;2024-02-14T00:58:44;11.57;;;7.50;;
1721;SDS011;858;53.190;8.596;2024-02-14T01:01:13;11.90;;;8.53;;
1721;SDS011;858;53.190;8.596;2024-02-14T01:03:39;10.50;;;8.50;;
1721;SDS011;858;53.190;8.596;2024-02-14T01:06:06;11.73;;;8.27;;
1721;SDS011;858;53.190;8.596;2024-02-14T01:08:32;11.27;;;7.70;;
1721;SDS011;858;53.190;8.596;2024-02-14T01:11:01;11.80;;;7.50;;
1721;SDS011;858;53.190;8.596;2024-02-14T01:13:28;10.90;;;8.90;;
1721;SDS011;858;53.190;8.596;2024-02-14T01:15:57;9.80;;;7.33;;
1721;SDS011;858;53.190;8.596;2024-02-14T01:18:24;11.43;;;7.87;;
1721;SDS011;858;53.190;8.596;2024-02-14T01:20:50;13.87;;;8.27;;
1721;SDS011;858;53.190;8.596;2024-02-14T01:23:17;12.60;;;8.83;;
1721;SDS011;858;53.190;8.596;2024-02-14T01:25:44;11.20;;;7.07;;
1721;SDS011;858;53.190;8.596;2024-02-14T01:28:10;11.70;;;8.33;;
1721;SDS011;858;53.190;8.596;2024-02-14T01:30:37;14.40;;;7.90;;
1721;SDS011;858;53.190;8.596;2024-02-14T01:33:05;11.20;;;7.23;;
1721;SDS011;858;53.190;8.596;2024-02-14T01:35:31;11.80;;;7.80;;
1721;SDS011;858;53.190;8.596;2024-02-14T01:37:58;13.67;;;8.60;;
1721;SDS011;858;53.190;8.596;2024-02-14T01:40:24;11.17;;;8.27;;
1721;SDS011;858;53.190;8.596;2024-02-14T01:42:51;9.27;;;6.70;;
1721;SDS011;858;53.190;8.596;2024-02-14T01:45:17;12.87;;;8.00;;
1721;SDS011;858;53.190;8.596;2024-02-14T01:47:44;9.07;;;8.00;;
1721;SDS011;858;53.190;8.596;2024-02-14T01:50:13;8.03;;;6.90;;
1721;SDS011;858;53.190;8.596;2024-02-14T01:52:41;14.87;;;8.50;;
1721;SDS011;858;53.190;8.596;2024-02-14T01:55:09;12.70;;;8.67;;
1721;SDS011;858;53.190;8.596;2024-02-14T01:57:38;10.27;;;8.23;;
1721;SDS011;858;53.190;8.596;2024-02-14T02:00:05;10.83;;;7.93;;
1721;SDS011;858;53.190;8.596;2024-02-14T02:02:33;15.23;;;8.77;;
1721;SDS011;858;53.190;8.596;2024-02-14T02:05:01;12.97;;;8.20;;
1721;SDS011;858;53.190;8.596;2024-02-14T02:07:29;12.10;;;8.87;;
1721;SDS011;858;53.190;8.596;2024-02-14T02:09:58;10.53;;;8.73;;
1721;SDS011;858;53.190;8.596;2024-02-14T02:12:24;10.70;;;8.30;;
1721;SDS011;858;53.190;8.596;2024-02-14T02:14:52;12.33;;;8.93;;
1721;SDS011;858;53.190;8.596;2024-02-14T02:17:18;12.77;;;9.10;;
1721;SDS011;858;53.190;8.596;2024-02-14T02:19:46;10.73;;;8.73;;
1721;SDS011;858;53.190;8.596;2024-02-14T02:22:12;11.67;;;8.80;;
1721;SDS011;858;53.190;8.596;2024-02-14T02:24:40;14.07;;;8.53;;
1721;SDS011;858;53.190;8.596;2024-02-14T02:27:06;11.23;;;8.47;;
1721;SDS011;858;53.190;8.596;2024-02-14T02:29:33;14.53;;;10.13;;
1721;SDS011;858;53.190;8.596;2024-02-14T02:32:00;14.73;;;8.83;;
1721;SDS011;858;53.190;8.596;2024-02-14T02:34:26;11.67;;;8.53;;
1721;SDS011;858;53.190;8.596;2024-02-14T02:36:53;13.50;;;9.63;;
1721;SDS011;858;53.190;8.596;2024-02-14T02:39:19;9.73;;;7.30;;
1721;SDS011;858;53.190;8.596;2024-02-14T02:41:47;14.00;;;8.40;;
1721;SDS011;858;53.190;8.596;2024-02-14T02:44:14;10.50;;;9.07;;
1721;SDS011;858;53.190;8.596;2024-02-14T02:46:41;13.98;;;9.90;;
1721;SDS011;858;53.190;8.596;2024-02-14T02:49:09;12.20;;;8.43;;
1721;SDS011;858;53.190;8.596;2024-02-14T02:51:35;12.67;;;9.77;;
1721;SDS011;858;53.190;8.596;2024-02-14T02:54:01;15.07;;;10.27;;
1721;SDS011;858;53.190;8.596;2024-02-14T02:56:28;13.43;;;9.30;;
1721;SDS011;858;53.190;8.596;2024-02-14T02:58:56;14.60;;;10.43;;
1721;SDS011;858;53.190;8.596;2024-02-14T03:01:22;16.47;;;11.07;;
1721;SDS011;858;53.190;8.596;2024-02-14T03:03:50;12.03;;;9.50;;
1721;SDS011;858;53.190;8.596;2024-02-14T03:06:17;14.10;;;10.30;;
1721;SDS011;858;53.190;8.596;2024-02-14T03:08:45;15.93;;;10.27;;
1721;SDS011;858;53.190;8.596;2024-02-14T03:11:11;16.83;;;10.70;;
1721;SDS011;858;53.190;8.596;2024-02-14T03:13:40;13.77;;;10.17;;
1721;SDS011;858;53.190;8.596;2024-02-14T03:16:11;14.57;;;10.03;;
1721;SDS011;858;53.190;8.596;2024-02-14T03:18:39;17.70;;;11.00;;
1721;SDS011;858;53.190;8.596;2024-02-14T03:21:06;22.40;;;11.20;;
1721;SDS011;858;53.190;8.596;2024-02-14T03:23:32;19.20;;;11.97;;
1721;SDS011;858;53.190;8.596;2024-02-14T03:25:59;16.67;;;12.27;;
1721;SDS011;858;53.190;8.596;2024-02-14T03:28:25;17.80;;;13.07;;
1721;SDS011;858;53.190;8.596;2024-02-14T03:30:52;15.47;;;11.83;;
1721;SDS011;858;53.190;8.596;2024-02-14T03:33:20;17.97;;;12.87;;
1721;SDS011;858;53.190;8.596;2024-02-14T03:35:48;18.73;;;11.87;;
1721;SDS011;858;53.190;8.596;2024-02-14T03:38:24;20.77;;;11.65;;
1721;SDS011;858;53.190;8.596;2024-02-14T03:40:50;15.03;;;10.57;;
1721;SDS011;858;53.190;8.596;2024-02-14T03:43:16;15.63;;;11.60;;
1721;SDS011;858;53.190;8.596;2024-02-14T03:45:43;14.20;;;11.90;;
1721;SDS011;858;53.190;8.596;2024-02-14T03:48:09;19.87;;;12.80;;
1721;SDS011;858;53.190;8.596;2024-02-14T03:50:39;16.43;;;12.80;;
1721;SDS011;858;53.190;8.596;2024-02-14T03:53:05;16.27;;;11.63;;
1721;SDS011;858;53.190;8.596;2024-02-14T03:55:33;17.27;;;12.90;;
1721;SDS011;858;53.190;8.596;2024-02-14T03:58:00;17.27;;;11.67;;
1721;SDS011;858;53.190;8.596;2024-02-14T04:00:26;16.43;;;12.27;;
1721;SDS011;858;53.190;8.596;2024-02-14T04:02:54;18.70;;;10.73;;
1721;SDS011;858;53.190;8.596;2024-02-14T04:05:24;13.10;;;11.27;;
1721;SDS011;858;53.190;8.596;2024-02-14T04:07:54;16.83;;;11.80;;
1721;SDS011;858;53.190;8.596;2024-02-14T04:10:20;18.60;;;13.23;;
1721;SDS011;858;53.190;8.596;2024-02-14T04:12:48;17.70;;;12.80;;
1721;SDS011;858;53.190;8.596;2024-02-14T04:15:15;16.87;;;12.73;;
1721;SDS011;858;53.190;8.596;2024-02-14T04:17:42;15.30;;;12.50;;
1721;SDS011;858;53.190;8.596;2024-02-14T04:20:09;21.20;;;13.10;;
1721;SDS011;858;53.190;8.596;2024-02-14T04:22:36;17.40;;;13.77;;
1721;SDS011;858;53.190;8.596;2024-02-14T04:25:04;16.37;;;11.70;;
1721;SDS011;858;53.190;8.596;2024-02-14T04:27:30;20.87;;;13.67;;
1721;SDS011;858;53.190;8.596;2024-02-14T04:29:57;15.23;;;11.30;;
1721;SDS011;858;53.190;8.596;2024-02-14T04:32:23;13.40;;;11.57;;
1721;SDS011;858;53.190;8.596;2024-02-14T04:34:52;18.10;;;13.03;;
1721;SDS011;858;53.190;8.596;2024-02-14T04:37:18;18.13;;;12.93;;
1721;SDS011;858;53.190;8.596;2024-02-14T04:39:45;19.33;;;12.23;;
1721;SDS011;858;53.190;8.596;2024-02-14T04:42:13;16.70;;;12.17;;
1721;SDS011;858;53.190;8.596;2024-02-14T04:44:39;15.80;;;12.67;;
1721;SDS011;858;53.190;8.596;2024-02-14T04:47:06;15.90;;;12.50;;
1721;SDS011;858;53.190;8.596;2024-02-14T04:49:33;19.20;;;12.30;;
1721;SDS011;858;53.190;8.596;2024-02-14T04:52:00;18.07;;;12.43;;
1721;SDS011;858;53.190;8.596;2024-02-14T04:54:30;21.57;;;13.97;;
1721;SDS011;858;53.190;8.596;2024-02-14T04:56:56;18.13;;;12.70;;
1721;SDS011;858;53.190;8.596;2024-02-14T04:59:24;20.37;;;13.20;;
1721;SDS011;858;53.190;8.596;2024-02-14T05:01:51;19.07;;;13.90;;
1721;SDS011;858;53.190;8.596;2024-02-14T05:04:18;18.10;;;12.57;;
1721;SDS011;858;53.190;8.596;2024-02-14T05:06:46;19.13;;;15.20;;
1721;SDS011;858;53.190;8.596;2024-02-14T05:09:13;15.70;;;11.90;;
1721;SDS011;858;53.190;8.596;2024-02-14T05:11:40;19.73;;;13.30;;
1721;SDS011;858;53.190;8.596;2024-02-14T05:14:06;20.33;;;12.90;;
1721;SDS011;858;53.190;8.596;2024-02-14T05:16:34;17.43;;;14.30;;
1721;SDS011;858;53.190;8.596;2024-02-14T05:19:01;19.03;;;13.13;;
1721;SDS011;858;53.190;8.596;2024-02-14T05:21:27;22.03;;;13.93;;
1721;SDS011;858;53.190;8.596;2024-02-14T05:23:55;17.47;;;12.33;;
1721;SDS011;858;53.190;8.596;2024-02-14T05:26:21;21.00;;;14.13;;
1721;SDS011;858;53.190;8.596;2024-02-14T05:28:47;18.30;;;14.40;;
1721;SDS011;858;53.190;8.596;2024-02-14T05:31:14;16.33;;;12.00;;
1721;SDS011;858;53.190;8.596;2024-02-14T05:33:44;21.13;;;15.20;;
1721;SDS011;858;53.190;8.596;2024-02-14T05:36:10;19.27;;;13.40;;
1721;SDS011;858;53.190;8.596;2024-02-14T05:38:36;19.00;;;14.83;;
1721;SDS011;858;53.190;8.596;2024-02-14T05:41:04;17.77;;;14.38;;
1721;SDS011;858;53.190;8.596;2024-02-14T05:43:33;19.00;;;15.33;;
1721;SDS011;858;53.190;8.596;2024-02-14T05:46:00;19.63;;;14.27;;
1721;SDS011;858;53.190;8.596;2024-02-14T05:48:26;19.40;;;14.73;;
1721;SDS011;858;53.190;8.596;2024-02-14T05:50:56;19.47;;;14.33;;
1721;SDS011;858;53.190;8.596;2024-02-14T05:53:22;21.10;;;14.20;;
1721;SDS011;858;53.190;8.596;2024-02-14T05:55:48;23.67;;;15.20;;
1721;SDS011;858;53.190;8.596;2024-02-14T05:58:16;24.52;;;14.60;;
1721;SDS011;858;53.190;8.596;2024-02-14T06:00:43;18.73;;;15.53;;
1721;SDS011;858;53.190;8.596;2024-02-14T06:03:10;19.50;;;15.57;;
1721;SDS011;858;53.190;8.596;2024-02-14T06:05:36;18.20;;;13.33;;
1721;SDS011;858;53.190;8.596;2024-02-14T06:08:04;21.20;;;14.43;;
1721;SDS011;858;53.190;8.596;2024-02-14T06:10:31;21.93;;;14.77;;
1721;SDS011;858;53.190;8.596;2024-02-14T06:12:59;20.57;;;15.00;;
1721;SDS011;858;53.190;8.596;2024-02-14T06:15:25;20.30;;;14.97;;
1721;SDS011;858;53.190;8.596;2024-02-14T06:17:52;22.67;;;15.87;;
1721;SDS011;858;53.190;8.596;2024-02-14T06:20:18;26.90;;;15.00;;
1721;SDS011;858;53.190;8.596;2024-02-14T06:22:45;24.57;;;15.57;;
1721;SDS011;858;53.190;8.596;2024-02-14T06:25:13;19.17;;;14.43;;
1721;SDS011;858;53.190;8.596;2024-02-14T06:27:41;19.67;;;14.97;;
1721;SDS011;858;53.190;8.596;2024-02-14T06:30:08;20.13;;;14.87;;
1721;SDS011;858;53.190;8.596;2024-02-14T06:32:35;23.95;;;15.73;;
1721;SDS011;858;53.190;8.596;2024-02-14T06:35:01;16.27;;;13.57;;
1721;SDS011;858;53.190;8.596;2024-02-14T06:37:28;19.10;;;12.80;;
1721;SDS011;858;53.190;8.596;2024-02-14T06:39:54;23.43;;;14.00;;
1721;SDS011;858;53.190;8.596;2024-02-14T06:42:23;20.67;;;15.60;;
1721;SDS011;858;53.190;8.596;2024-02-14T06:44:49;19.67;;;13.68;;
1721;SDS011;858;53.190;8.596;2024-02-14T06:47:16;18.23;;;12.50;;
1721;SDS011;858;53.190;8.596;2024-02-14T06:49:42;20.60;;;14.60;;
1721;SDS011;858;53.190;8.596;2024-02-14T06:52:08;19.30;;;13.40;;
1721;SDS011;858;53.190;8.596;2024-02-14T06:54:35;18.83;;;12.90;;
1721;SDS011;858;53.190;8.596;2024-02-14T06:57:01;20.48;;;15.27;;
1721;SDS011;858;53.190;8.596;2024-02-14T06:59:30;19.13;;;14.07;;
1721;SDS011;858;53.190;8.596;2024-02-14T07:01:57;21.57;;;14.77;;
1721;SDS011;858;53.190;8.596;2024-02-14T07:04:24;20.80;;;13.57;;
1721;SDS011;858;53.190;8.596;2024-02-14T07:06:52;22.03;;;14.27;;
1721;SDS011;858;53.190;8.596;2024-02-14T07:09:19;18.30;;;13.63;;
1721;SDS011;858;53.190;8.596;2024-02-14T07:11:45;20.63;;;14.10;;
1721;SDS011;858;53.190;8.596;2024-02-14T07:14:11;22.97;;;14.13;;
1721;SDS011;858;53.190;8.596;2024-02-14T07:16:40;19.10;;;14.40;;
1721;SDS011;858;53.190;8.596;2024-02-14T07:19:06;19.40;;;13.40;;
1721;SDS011;858;53.190;8.596;2024-02-14T07:21:32;16.58;;;12.20;;
1721;SDS011;858;53.190;8.596;2024-02-14T07:23:59;16.03;;;12.50;;
1721;SDS011;858;53.190;8.596;2024-02-14T07:26:25;15.20;;;12.43;;
1721;SDS011;858;53.190;8.596;2024-02-14T07:28:52;16.93;;;12.20;;
1721;SDS011;858;53.190;8.596;2024-02-14T07:31:19;17.20;;;12.23;;
1721;SDS011;858;53.190;8.596;2024-02-14T07:33:47;12.50;;;9.93;;
1721;SDS011;858;53.190;8.596;2024-02-14T07:36:14;12.47;;;9.07;;
1721;SDS011;858;53.190;8.596;2024-02-14T07:38:42;13.00;;;9.53;;
1721;SDS011;858;53.190;8.596;2024-02-14T07:41:08;12.45;;;9.98;;
1721;SDS011;858;53.190;8.596;2024-02-14T07:43:35;13.00;;;9.60;;
1721;SDS011;858;53.190;8.596;2024-02-14T07:46:01;12.10;;;8.13;;
1721;SDS011;858;53.190;8.596;2024-02-14T07:48:27;8.13;;;6.37;;
1721;SDS011;858;53.190;8.596;2024-02-14T07:50:56;11.70;;;9.17;;
1721;SDS011;858;53.190;8.596;2024-02-14T07:53:24;9.93;;;7.33;;
1721;SDS011;858;53.190;8.596;2024-02-14T07:55:52;11.40;;;8.10;;
1721;SDS011;858;53.190;8.596;2024-02-14T07:58:19;9.57;;;8.10;;
1721;SDS011;858;53.190;8.596;2024-02-14T08:00:46;11.13;;;8.00;;
1721;SDS011;858;53.190;8.596;2024-02-14T08:03:12;11.93;;;8.30;;
1721;SDS011;858;53.190;8.596;2024-02-14T08:05:39;10.88;;;7.22;;
1721;SDS011;858;53.190;8.596;2024-02-14T08:08:07;9.10;;;6.60;;
1721;SDS011;858;53.190;8.596;2024-02-14T08:10:34;9.20;;;7.00;;
1721;SDS011;858;53.190;8.596;2024-02-14T08:13:00;9.43;;;7.00;;
1721;SDS011;858;53.190;8.596;2024-02-14T08:15:29;9.90;;;7.03;;
1721;SDS011;858;53.190;8.596;2024-02-14T08:17:56;10.07;;;6.93;;
1721;SDS011;858;53.190;8.596;2024-02-14T08:20:24;9.43;;;7.57;;
1721;SDS011;858;53.190;8.596;2024-02-14T08:22:50;10.00;;;8.20;;
1721;SDS011;858;53.190;8.596;2024-02-14T08:25:18;9.70;;;7.40;;
1721;SDS011;858;53.190;8.596;2024-02-14T08:27:44;9.40;;;6.37;;
1721;SDS011;858;53.190;8.596;2024-02-14T08:30:12;9.43;;;6.07;;
1721;SDS011;858;53.190;8.596;2024-02-14T08:32:41;8.37;;;5.80;;
1721;SDS011;858;53.190;8.596;2024-02-14T08:35:07;7.87;;;6.20;;
1721;SDS011;858;53.190;8.596;2024-02-14T08:37:35;7.27;;;6.23;;
1721;SDS011;858;53.190;8.596;2024-02-14T08:40:03;9.13;;;6.68;;
1721;SDS011;858;53.190;8.596;2024-02-14T08:42:32;6.90;;;5.55;;
1721;SDS011;858;53.190;8.596;2024-02-14T08:44:59;6.63;;;5.33;;
1721;SDS011;858;53.190;8.596;2024-02-14T08:47:25;7.28;;;5.50;;
1721;SDS011;858;53.190;8.596;2024-02-14T08:49:52;6.30;;;5.00;;
1721;SDS011;858;53.190;8.596;2024-02-14T08:52:18;8.17;;;5.90;;
1721;SDS011;858;53.190;8.596;2024-02-14T08:54:44;7.17;;;5.80;;
1721;SDS011;858;53.190;8.596;2024-02-14T08:57:12;8.93;;;5.13;;
1721;SDS011;858;53.190;8.596;2024-02-14T08:59:39;6.23;;;4.83;;
1721;SDS011;858;53.190;8.596;2024-02-14T09:02:08;7.07;;;5.43;;
1721;SDS011;858;53.190;8.596;2024-02-14T09:04:34;8.23;;;6.60;;
1721;SDS011;858;53.190;8.596;2024-02-14T09:07:02;9.10;;;5.73;;
1721;SDS011;858;53.190;8.596;2024-02-14T09:09:32;9.97;;;7.10;;
1721;SDS011;858;53.190;8.596;2024-02-14T09:12:00;10.57;;;6.27;;
1721;SDS011;858;53.190;8.596;2024-02-14T09:14:27;8.87;;;5.90;;
1721;SDS011;858;53.190;8.596;2024-02-14T09:16:56;9.40;;;6.40;;
1721;SDS011;858;53.190;8.596;2024-02-14T09:19:23;8.13;;;5.77;;
1721;SDS011;858;53.190;8.596;2024-02-14T09:21:50;8.75;;;5.90;;
1721;SDS011;858;53.190;8.596;2024-02-14T09:24:19;9.47;;;6.10;;
1721;SDS011;858;53.190;8.596;2024-02-14T09:26:45;10.17;;;6.27;;
1721;SDS011;858;53.190;8.596;2024-02-14T09:29:12;7.43;;;5.57;;
1721;SDS011;858;53.190;8.596;2024-02-14T09:31:40;12.13;;;7.57;;
1721;SDS011;858;53.190;8.596;2024-02-14T09:34:08;7.45;;;5.53;;
1721;SDS011;858;53.190;8.596;2024-02-14T09:36:36;8.47;;;6.07;;
1721;SDS011;858;53.190;8.596;2024-02-14T09:39:04;9.98;;;6.25;;
1721;SDS011;858;53.190;8.596;2024-02-14T09:41:36;8.53;;;6.50;;
1721;SDS011;858;53.190;8.596;2024-02-14T09:44:02;9.17;;;6.13;;
1721;SDS011;858;53.190;8.596;2024-02-14T09:46:29;8.07;;;6.03;;
1721;SDS011;858;53.190;8.596;2024-02-14T09:48:57;12.40;;;7.90;;
1721;SDS011;858;53.190;8.596;2024-02-14T09:51:26;10.60;;;7.20;;
1721;SDS011;858;53.190;8.596;2024-02-14T09:53:56;12.83;;;7.83;;
1721;SDS011;858;53.190;8.596;2024-02-14T09:56:24;12.20;;;7.60;;
1721;SDS011;858;53.190;8.596;2024-02-14T09:58:52;12.07;;;8.27;;
1721;SDS011;858;53.190;8.596;2024-02-14T10:01:21;13.97;;;8.50;;
1721;SDS011;858;53.190;8.596;2024-02-14T10:03:49;13.63;;;10.07;;
1721;SDS011;858;53.190;8.596;2024-02-14T10:06:16;17.03;;;10.03;;
1721;SDS011;858;53.190;8.596;2024-02-14T10:08:45;12.73;;;9.10;;
1721;SDS011;858;53.190;8.596;2024-02-14T10:11:11;16.27;;;8.93;;
1721;SDS011;858;53.190;8.596;2024-02-14T10:13:40;15.43;;;9.80;;
1721;SDS011;858;53.190;8.596;2024-02-14T10:16:07;12.20;;;9.35;;
1721;SDS011;858;53.190;8.596;2024-02-14T10:18:33;12.83;;;8.67;;
1721;SDS011;858;53.190;8.596;2024-02-14T10:21:00;17.25;;;10.30;;
1721;SDS011;858;53.190;8.596;2024-02-14T10:23:26;16.55;;;9.77;;
1721;SDS011;858;53.190;8.596;2024-02-14T10:25:53;17.70;;;9.57;;
1721;SDS011;858;53.190;8.596;2024-02-14T10:28:21;13.65;;;9.98;;
1721;SDS011;858;53.190;8.596;2024-02-14T10:30:47;16.27;;;10.00;;
1721;SDS011;858;53.190;8.596;2024-02-14T10:33:15;15.90;;;10.33;;
1721;SDS011;858;53.190;8.596;2024-02-14T10:35:42;15.30;;;9.20;;
1721;SDS011;858;53.190;8.596;2024-02-14T10:38:08;18.23;;;11.13;;
1721;SDS011;858;53.190;8.596;2024-02-14T10:40:35;22.17;;;13.80;;
1721;SDS011;858;53.190;8.596;2024-02-14T10:43:05;17.77;;;11.73;;
1721;SDS011;858;53.190;8.596;2024-02-14T10:45:31;14.35;;;10.13;;
1721;SDS011;858;53.190;8.596;2024-02-14T10:48:01;15.80;;;10.70;;
1721;SDS011;858;53.190;8.596;2024-02-14T10:50:31;16.73;;;11.70;;
1721;SDS011;858;53.190;8.596;2024-02-14T10:52:58;18.83;;;11.63;;
1721;SDS011;858;53.190;8.596;2024-02-14T10:55:27;17.83;;;10.87;;
1721;SDS011;858;53.190;8.596;2024-02-14T10:57:55;21.40;;;13.03;;
1721;SDS011;858;53.190;8.596;2024-02-14T11:00:23;17.40;;;10.53;;
1721;SDS011;858;53.190;8.596;2024-02-14T11:02:50;17.70;;;11.60;;
1721;SDS011;858;53.190;8.596;2024-02-14T11:05:18;15.33;;;9.90;;
1721;SDS011;858;53.190;8.596;2024-02-14T11:07:49;14.67;;;10.30;;
1721;SDS011;858;53.190;8.596;2024-02-14T11:10:18;16.27;;;9.17;;
1721;SDS011;858;53.190;8.596;2024-02-14T11:12:46;20.83;;;10.67;;
1721;SDS011;858;53.190;8.596;2024-02-14T11:15:16;18.47;;;9.83;;
1721;SDS011;858;53.190;8.596;2024-02-14T11:17:44;16.63;;;9.90;;
1721;SDS011;858;53.190;8.596;2024-02-14T11:20:14;15.30;;;10.63;;
1721;SDS011;858;53.190;8.596;2024-02-14T11:22:49;16.37;;;9.30;;
1721;SDS011;858;53.190;8.596;2024-02-14T11:25:16;15.67;;;10.97;;
1721;SDS011;858;53.190;8.596;2024-02-14T11:27:43;16.60;;;10.10;;
1721;SDS011;858;53.190;8.596;2024-02-14T11:30:12;24.23;;;11.83;;
1721;SDS011;858;53.190;8.596;2024-02-14T11:32:42;16.67;;;11.43;;
1721;SDS011;858;53.190;8.596;2024-02-14T11:35:12;16.20;;;9.93;;
1721;SDS011;858;53.190;8.596;2024-02-14T11:37:39;17.03;;;11.57;;
1721;SDS011;858;53.190;8.596;2024-02-14T11:40:06;17.80;;;10.67;;
1721;SDS011;858;53.190;8.596;2024-02-14T11:42:32;19.27;;;11.27;;
1721;SDS011;858;53.190;8.596;2024-02-14T11:44:59;15.90;;;10.43;;
1721;SDS011;858;53.190;8.596;2024-02-14T11:47:27;15.00;;;10.73;;
1721;SDS011;858;53.190;8.596;2024-02-14T11:49:55;16.30;;;11.33;;
1721;SDS011;858;53.190;8.596;2024-02-14T11:52:25;16.10;;;11.90;;
1721;SDS011;858;53.190;8.596;2024-02-14T11:54:53;19.53;;;11.80;;
1721;SDS011;858;53.190;8.596;2024-02-14T11:57:21;15.73;;;10.53;;
1721;SDS011;858;53.190;8.596;2024-02-14T11:59:48;15.83;;;10.93;;
1721;SDS011;858;53.190;8.596;2024-02-14T12:02:17;15.27;;;10.70;;
1721;SDS011;858;53.190;8.596;2024-02-14T12:04:45;15.33;;;11.20;;
1721;SDS011;858;53.190;8.596;2024-02-14T12:07:14;14.37;;;10.20;;
1721;SDS011;858;53.190;8.596;2024-02-14T12:09:42;14.40;;;10.67;;
1721;SDS011;858;53.190;8.596;2024-02-14T12:12:08;18.90;;;11.73;;
1721;SDS011;858;53.190;8.596;2024-02-14T12:14:36;15.00;;;10.60;;
1721;SDS011;858;53.190;8.596;2024-02-14T12:17:02;13.97;;;10.43;;
1721;SDS011;858;53.190;8.596;2024-02-14T12:19:31;18.67;;;11.10;;
1721;SDS011;858;53.190;8.596;2024-02-14T12:21:59;17.70;;;12.57;;
1721;SDS011;858;53.190;8.596;2024-02-14T12:24:27;18.53;;;13.60;;
1721;SDS011;858;53.190;8.596;2024-02-14T12:26:57;14.70;;;9.67;;
1721;SDS011;858;53.190;8.596;2024-02-14T12:29:24;18.47;;;10.43;;
1721;SDS011;858;53.190;8.596;2024-02-14T12:31:52;11.90;;;9.27;;
1721;SDS011;858;53.190;8.596;2024-02-14T12:34:20;12.10;;;8.10;;
1721;SDS011;858;53.190;8.596;2024-02-14T12:36:48;16.13;;;10.80;;
1721;SDS011;858;53.190;8.596;2024-02-14T12:39:14;13.23;;;8.98;;
1721;SDS011;858;53.190;8.596;2024-02-14T12:41:41;11.77;;;9.30;;
1721;SDS011;858;53.190;8.596;2024-02-14T12:44:09;10.40;;;8.38;;
1721;SDS011;858;53.190;8.596;2024-02-14T12:46:35;13.87;;;9.33;;
1721;SDS011;858;53.190;8.596;2024-02-14T12:49:03;12.27;;;9.38;;
1721;SDS011;858;53.190;8.596;2024-02-14T12:51:29;13.43;;;9.60;;
1721;SDS011;858;53.190;8.596;2024-02-14T12:53:56;13.73;;;8.90;;
1721;SDS011;858;53.190;8.596;2024-02-14T12:56:23;16.70;;;9.63;;
1721;SDS011;858;53.190;8.596;2024-02-14T12:58:50;14.70;;;9.23;;
1721;SDS011;858;53.190;8.596;2024-02-14T13:01:18;12.40;;;9.77;;
1721;SDS011;858;53.190;8.596;2024-02-14T13:03:45;12.40;;;8.73;;
1721;SDS011;858;53.190;8.596;2024-02-14T13:06:12;13.23;;;8.90;;
1721;SDS011;858;53.190;8.596;2024-02-14T13:08:39;12.60;;;10.00;;
1721;SDS011;858;53.190;8.596;2024-02-14T13:11:05;12.20;;;8.73;;
1721;SDS011;858;53.190;8.596;2024-02-14T13:13:33;9.63;;;7.17;;
1721;SDS011;858;53.190;8.596;2024-02-14T13:16:01;12.90;;;8.47;;
1721;SDS011;858;53.190;8.596;2024-02-14T13:18:29;10.33;;;8.10;;
1721;SDS011;858;53.190;8.596;2024-02-14T13:20:55;10.60;;;7.80;;
1721;SDS011;858;53.190;8.596;2024-02-14T13:23:24;11.03;;;7.23;;
1721;SDS011;858;53.190;8.596;2024-02-14T13:25:52;10.23;;;7.43;;
1721;SDS011;858;53.190;8.596;2024-02-14T13:28:18;8.20;;;7.40;;
1721;SDS011;858;53.190;8.596;2024-02-14T13:30:45;14.00;;;7.47;;
1721;SDS011;858;53.190;8.596;2024-02-14T13:33:13;9.20;;;6.95;;
1721;SDS011;858;53.190;8.596;2024-02-14T13:35:41;13.07;;;8.40;;
1721;SDS011;858;53.190;8.596;2024-02-14T13:38:08;8.93;;;6.97;;
1721;SDS011;858;53.190;8.596;2024-02-14T13:40:35;10.97;;;8.27;;
1721;SDS011;858;53.190;8.596;2024-02-14T13:43:02;12.00;;;8.00;;
1721;SDS011;858;53.190;8.596;2024-02-14T13:45:33;10.07;;;7.47;;
1721;SDS011;858;53.190;8.596;2024-02-14T13:48:02;11.83;;;8.00;;
1721;SDS011;858;53.190;8.596;2024-02-14T13:50:30;12.77;;;8.57;;
1721;SDS011;858;53.190;8.596;2024-02-14T13:52:57;10.73;;;8.40;;
1721;SDS011;858;53.190;8.596;2024-02-14T13:55:24;12.43;;;9.05;;
1721;SDS011;858;53.190;8.596;2024-02-14T13:57:52;13.80;;;9.60;;
1721;SDS011;858;53.190;8.596;2024-02-14T14:00:18;14.77;;;9.13;;
1721;SDS011;858;53.190;8.596;2024-02-14T14:02:45;13.37;;;9.90;;
1721;SDS011;858;53.190;8.596;2024-02-14T14:05:11;20.73;;;11.17;;
1721;SDS011;858;53.190;8.596;2024-02-14T14:07:40;17.10;;;10.50;;
1721;SDS011;858;53.190;8.596;2024-02-14T14:10:10;13.07;;;9.63;;
1721;SDS011;858;53.190;8.596;2024-02-14T14:12:37;13.60;;;9.57;;
1721;SDS011;858;53.190;8.596;2024-02-14T14:15:04;12.73;;;9.63;;
1721;SDS011;858;53.190;8.596;2024-02-14T14:17:31;16.23;;;9.27;;
1721;SDS011;858;53.190;8.596;2024-02-14T14:19:57;15.40;;;9.63;;
1721;SDS011;858;53.190;8.596;2024-02-14T14:22:25;15.37;;;9.80;;
1721;SDS011;858;53.190;8.596;2024-02-14T14:24:53;14.00;;;9.30;;
1721;SDS011;858;53.190;8.596;2024-02-14T14:27:21;12.97;;;9.87;;
1721;SDS011;858;53.190;8.596;2024-02-14T14:29:48;12.07;;;9.10;;
1721;SDS011;858;53.190;8.596;2024-02-14T14:32:15;14.10;;;8.10;;
1721;SDS011;858;53.190;8.596;2024-02-14T14:34:42;11.30;;;8.03;;
1721;SDS011;858;53.190;8.596;2024-02-14T14:37:09;13.67;;;8.90;;
1721;SDS011;858;53.190;8.596;2024-02-14T14:39:37;12.60;;;9.50;;
1721;SDS011;858;53.190;8.596;2024-02-14T14:42:05;13.47;;;9.60;;
1721;SDS011;858;53.190;8.596;2024-02-14T14:44:34;12.30;;;8.87;;
1721;SDS011;858;53.190;8.596;2024-02-14T14:47:01;12.90;;;9.83;;
1721;SDS011;858;53.190;8.596;2024-02-14T14:49:27;15.60;;;10.20;;
1721;SDS011;858;53.190;8.596;2024-02-14T14:51:55;11.97;;;9.47;;
1721;SDS011;858;53.190;8.596;2024-02-14T14:54:22;15.10;;;10.70;;
1721;SDS011;858;53.190;8.596;2024-02-14T14:56:52;12.63;;;9.40;;
1721;SDS011;858;53.190;8.596;2024-02-14T14:59:19;14.13;;;9.57;;
1721;SDS011;858;53.190;8.596;2024-02-14T15:01:49;12.80;;;9.33;;
1721;SDS011;858;53.190;8.596;2024-02-14T15:04:15;12.07;;;9.47;;
1721;SDS011;858;53.190;8.596;2024-02-14T15:06:42;11.30;;;8.90;;
1721;SDS011;858;53.190;8.596;2024-02-14T15:09:09;13.03;;;10.10;;
1721;SDS011;858;53.190;8.596;2024-02-14T15:11:35;13.68;;;9.80;;
1721;SDS011;858;53.190;8.596;2024-02-14T15:14:03;11.33;;;9.20;;